Time;durP1;ratioP1;P1;durP2;ratioP2;P2;SDS_P1;SDS_P2;PMS_P1;PMS_P2;Temp;Humidity;BMP_temperature;BMP_pressure;BME280_temperature;BME280_humidity;BME280_pressure;Samples;Min_cycle;Max_cycle;Signal;HPM_P1;HPM_P2
2022/04/27 00:01:44;;;;;;;3.08;1.70;;;8.20;73.30;;;;;;5075014;28;20028;-59
2022/04/27 00:04:09;;;;;;;3.50;2.40;;;8.20;73.40;;;;;;5075064;28;20488;-59
2022/04/27 00:06:35;;;;;;;2.45;1.65;;;8.10;73.50;;;;;;5074851;28;20029;-59
2022/04/27 00:09:01;;;;;;;3.65;1.65;;;8.10;73.70;;;;;;5074993;28;20028;-59
2022/04/27 00:11:26;;;;;;;3.83;2.00;;;8.00;73.80;;;;;;5074943;28;20440;-59
2022/04/27 00:13:52;;;;;;;2.42;1.77;;;8.00;74.00;;;;;;5074797;28;20032;-59
2022/04/27 00:16:17;;;;;;;2.67;1.80;;;7.90;74.10;;;;;;5074878;28;20021;-59
2022/04/27 00:18:43;;;;;;;4.63;2.10;;;7.80;74.30;;;;;;5073904;28;20045;-59
2022/04/27 00:21:08;;;;;;;3.40;2.28;;;7.80;74.50;;;;;;5073781;28;20052;-59
2022/04/27 00:23:34;;;;;;;5.15;2.40;;;7.70;74.60;;;;;;5074778;28;20027;-59
2022/04/27 00:26:00;;;;;;;3.72;2.00;;;7.70;74.80;;;;;;5074607;28;20150;-59
2022/04/27 00:28:26;;;;;;;4.20;2.00;;;7.60;74.90;;;;;;5074360;28;20495;-59
2022/04/27 00:30:51;;;;;;;4.15;2.00;;;7.60;75.00;;;;;;5074615;28;20488;-59
2022/04/27 00:33:17;;;;;;;3.28;2.08;;;7.50;75.20;;;;;;5074517;28;20114;-59
2022/04/27 00:35:42;;;;;;;5.25;2.45;;;7.50;75.40;;;;;;5056373;28;20017;-59
2022/04/27 00:38:08;;;;;;;2.53;2.08;;;7.40;75.60;;;;;;5074429;28;20029;-58
2022/04/27 00:40:33;;;;;;;3.30;2.30;;;7.30;75.60;;;;;;5073020;28;20052;-59
2022/04/27 00:42:59;;;;;;;2.78;2.13;;;7.30;75.90;;;;;;5074258;28;20032;-59
2022/04/27 00:45:25;;;;;;;4.10;2.05;;;7.30;76.00;;;;;;5074260;28;20079;-59
2022/04/27 00:47:50;;;;;;;2.47;2.13;;;7.20;76.10;;;;;;5074261;28;20013;-59
2022/04/27 00:50:16;;;;;;;4.57;2.47;;;7.20;76.30;;;;;;5074257;28;20468;-58
2022/04/27 00:52:42;;;;;;;4.03;2.55;;;7.10;76.40;;;;;;5073843;28;20044;-59
2022/04/27 00:55:10;;;;;;;3.83;2.35;;;7.10;76.70;;;;;;5072886;28;20058;-59
2022/04/27 00:57:39;;;;;;;5.88;2.40;;;7.00;76.90;;;;;;5073171;28;20028;-59
2022/04/27 01:00:07;;;;;;;3.70;2.53;;;7.00;77.60;;;;;;5074159;28;20017;-59
2022/04/27 01:02:33;;;;;;;3.08;2.08;;;6.90;77.10;;;;;;5073818;28;20387;-59
2022/04/27 01:04:59;;;;;;;3.40;2.10;;;6.90;77.20;;;;;;5073847;28;20029;-59
2022/04/27 01:07:25;;;;;;;4.28;2.38;;;6.80;77.30;;;;;;5072447;28;20078;-59
2022/04/27 01:09:51;;;;;;;3.97;2.20;;;6.80;77.40;;;;;;5073892;28;20059;-58
2022/04/27 01:12:18;;;;;;;2.88;1.90;;;6.80;77.50;;;;;;5072408;28;20120;-59
2022/04/27 01:14:45;;;;;;;2.85;1.80;;;6.80;77.50;;;;;;5072378;28;20077;-59
2022/04/27 01:17:11;;;;;;;2.90;2.17;;;6.80;77.50;;;;;;5073406;28;20039;-59
2022/04/27 01:19:37;;;;;;;3.40;2.65;;;6.80;77.60;;;;;;5073729;28;20029;-59
2022/04/27 01:22:03;;;;;;;5.25;2.10;;;6.70;78.00;;;;;;5073572;28;20103;-59
2022/04/27 01:24:30;;;;;;;3.95;2.30;;;6.60;78.30;;;;;;5073537;28;20058;-58
2022/04/27 01:26:56;;;;;;;4.55;2.50;;;6.60;78.40;;;;;;5073325;28;20024;-59
2022/04/27 01:29:22;;;;;;;2.65;1.80;;;6.50;78.70;;;;;;5073399;28;20169;-59
2022/04/27 01:31:49;;;;;;;3.30;2.20;;;6.50;78.80;;;;;;5073377;28;20024;-59
2022/04/27 01:34:14;;;;;;;2.88;2.22;;;6.40;78.90;;;;;;5073619;28;20033;-59
2022/04/27 01:36:40;;;;;;;2.28;1.95;;;6.40;79.00;;;;;;5071779;28;20034;-59
2022/04/27 01:39:07;;;;;;;3.75;2.30;;;6.30;79.00;;;;;;5073326;28;20020;-58
2022/04/27 01:41:34;;;;;;;4.70;2.50;;;6.30;79.30;;;;;;5073091;28;20055;-59
2022/04/27 01:44:00;;;;;;;3.85;2.28;;;6.30;79.40;;;;;;5073043;28;20031;-59
2022/04/27 01:46:27;;;;;;;3.40;2.75;;;6.20;79.50;;;;;;5071822;28;20020;-58
2022/04/27 01:48:53;;;;;;;3.38;2.78;;;6.20;79.70;;;;;;5073070;28;20028;-59
2022/04/27 01:51:19;;;;;;;2.75;2.22;;;6.20;79.80;;;;;;5071773;28;20037;-59
2022/04/27 01:56:31;;;;;;;5.32;2.85;;;6.10;79.90;;;;;;5072933;28;20097;-59
2022/04/27 01:58:57;;;;;;;3.80;2.63;;;6.00;80.00;;;;;;5072852;28;20504;-59
2022/04/27 02:01:25;;;;;;;4.18;2.75;;;6.00;80.10;;;;;;5072735;28;20032;-58
2022/04/27 02:03:51;;;;;;;3.38;2.67;;;5.90;80.20;;;;;;5072753;28;20026;-58
2022/04/27 02:06:19;;;;;;;3.78;2.65;;;5.90;80.40;;;;;;5072703;28;20020;-59
2022/04/27 02:08:45;;;;;;;3.75;2.17;;;5.90;80.50;;;;;;5072459;28;20028;-59
2022/04/27 02:11:11;;;;;;;4.63;3.10;;;5.80;80.60;;;;;;5072675;28;20103;-59
2022/04/27 02:13:37;;;;;;;3.80;2.90;;;5.80;80.80;;;;;;5072865;28;20035;-59
2022/04/27 02:16:03;;;;;;;4.90;2.92;;;5.80;80.90;;;;;;5072446;28;20029;-58
2022/04/27 02:18:28;;;;;;;4.75;2.90;;;5.70;80.90;;;;;;5072331;28;20051;-58
2022/04/27 02:20:56;;;;;;;3.67;2.60;;;5.70;81.00;;;;;;5071024;28;20125;-58
2022/04/27 02:23:22;;;;;;;3.47;2.75;;;5.70;81.10;;;;;;5072197;28;20017;-58
2022/04/27 02:25:47;;;;;;;3.53;2.63;;;5.70;81.20;;;;;;5072475;28;20023;-59
2022/04/27 02:28:13;;;;;;;4.65;2.60;;;5.70;81.20;;;;;;5072332;28;20028;-58
2022/04/27 02:30:39;;;;;;;4.03;2.78;;;5.60;81.30;;;;;;5054359;28;20029;-59
2022/04/27 02:33:04;;;;;;;6.00;2.60;;;5.60;81.40;;;;;;5072365;28;20104;-59
2022/04/27 02:35:30;;;;;;;3.75;2.85;;;5.50;81.50;;;;;;5072173;28;20086;-59
2022/04/27 02:37:56;;;;;;;3.63;3.00;;;5.50;81.60;;;;;;5072354;28;20094;-58
2022/04/27 02:40:21;;;;;;;4.78;3.17;;;5.50;81.80;;;;;;5072336;28;20062;-59
2022/04/27 02:42:47;;;;;;;5.82;3.70;;;5.40;81.90;;;;;;5072247;28;20120;-58
2022/04/27 02:45:13;;;;;;;4.70;3.63;;;5.40;82.00;;;;;;5072229;28;20044;-58
2022/04/27 02:47:38;;;;;;;3.90;3.20;;;5.40;82.10;;;;;;5072116;28;20025;-59
2022/04/27 02:52:49;;;;;;;5.57;3.55;;;5.30;82.40;;;;;;5072476;28;20039;-59
2022/04/27 02:55:15;;;;;;;5.78;3.25;;;5.30;82.60;;;;;;5072007;28;20025;-59
2022/04/27 02:57:40;;;;;;;4.68;3.70;;;5.20;82.90;;;;;;5072029;28;20048;-59
2022/04/27 03:00:07;;;;;;;4.45;3.08;;;5.20;83.00;;;;;;5072255;28;20067;-58
2022/04/27 03:02:33;;;;;;;4.32;3.17;;;5.20;83.20;;;;;;5072171;28;20051;-58
2022/04/27 03:05:00;;;;;;;3.25;2.67;;;5.20;83.30;;;;;;5070827;28;20480;-58
2022/04/27 03:07:26;;;;;;;6.82;3.58;;;5.20;83.40;;;;;;5072058;28;20021;-59
2022/04/27 03:09:52;;;;;;;7.38;3.53;;;5.20;83.40;;;;;;5071867;28;20024;-59
2022/04/27 03:12:17;;;;;;;6.18;4.38;;;5.10;83.40;;;;;;5072111;28;20103;-59
2022/04/27 03:14:43;;;;;;;5.40;4.15;;;5.10;83.60;;;;;;5070740;28;20025;-59
2022/04/27 03:17:08;;;;;;;5.15;3.55;;;5.10;83.60;;;;;;5071636;28;20024;-59
2022/04/27 03:19:34;;;;;;;5.00;3.80;;;5.00;83.70;;;;;;5072013;28;20472;-58
2022/04/27 03:22:00;;;;;;;5.25;4.30;;;5.00;83.80;;;;;;5074039;28;20477;-58
2022/04/27 03:24:25;;;;;;;5.50;4.63;;;5.00;84.00;;;;;;5075746;28;20025;-58
2022/04/27 03:26:51;;;;;;;5.45;4.03;;;4.90;84.00;;;;;;5075781;28;20024;-58
2022/04/27 03:29:16;;;;;;;7.05;4.68;;;4.90;84.00;;;;;;5075832;28;20024;-59
2022/04/27 03:31:42;;;;;;;7.20;4.55;;;4.90;84.10;;;;;;5075533;28;20491;-58
2022/04/27 03:34:08;;;;;;;5.93;4.65;;;4.90;84.10;;;;;;5075698;28;20028;-59
2022/04/27 03:36:33;;;;;;;7.00;5.32;;;4.90;84.30;;;;;;5075509;28;20078;-58
2022/04/27 03:38:59;;;;;;;6.90;5.05;;;4.80;84.50;;;;;;5075556;28;20033;-58
2022/04/27 03:41:27;;;;;;;7.65;5.32;;;4.80;84.60;;;;;;5075331;28;20031;-58
2022/04/27 03:43:54;;;;;;;7.18;5.60;;;4.80;84.80;;;;;;5075347;28;20472;-59
2022/04/27 03:46:20;;;;;;;5.53;4.65;;;4.70;85.00;;;;;;5075322;28;20035;-59
2022/04/27 03:48:46;;;;;;;6.30;5.15;;;4.70;85.20;;;;;;5075409;28;20021;-59
2022/04/27 03:51:12;;;;;;;7.40;4.85;;;4.70;85.40;;;;;;5075320;28;20468;-58
2022/04/27 03:53:38;;;;;;;8.10;4.65;;;4.70;85.50;;;;;;5075310;28;20067;-58
2022/04/27 03:56:04;;;;;;;5.90;4.82;;;4.70;85.60;;;;;;5075459;28;20063;-59
2022/04/27 03:58:30;;;;;;;7.90;5.63;;;4.70;85.60;;;;;;5075241;28;20480;-58
2022/04/27 04:00:56;;;;;;;7.63;5.95;;;4.70;85.70;;;;;;5075254;28;20029;-58
2022/04/27 04:03:22;;;;;;;7.55;5.55;;;4.60;85.70;;;;;;5073815;28;20028;-59
2022/04/27 04:05:47;;;;;;;7.50;5.72;;;4.60;85.90;;;;;;5075002;28;20024;-58
2022/04/27 04:08:13;;;;;;;6.63;5.28;;;4.60;86.00;;;;;;5075093;28;20461;-58
2022/04/27 04:10:38;;;;;;;7.07;5.13;;;4.60;86.20;;;;;;5074829;28;20033;-58
2022/04/27 04:13:04;;;;;;;6.00;5.35;;;4.60;86.30;;;;;;5075113;28;20036;-58
2022/04/27 04:15:29;;;;;;;6.75;5.60;;;4.50;86.30;;;;;;5074677;28;20017;-58
2022/04/27 04:17:56;;;;;;;7.80;5.93;;;4.50;86.40;;;;;;5074895;28;20044;-58
2022/04/27 04:20:22;;;;;;;8.55;6.15;;;4.50;86.60;;;;;;5073462;28;20040;-58
2022/04/27 04:22:48;;;;;;;7.47;5.85;;;4.50;86.80;;;;;;5074699;28;20065;-58
2022/04/27 04:30:44;;;;;;;6.25;5.60;;;4.40;87.00;;;;;;5074916;28;20047;-58
2022/04/27 04:33:09;;;;;;;6.93;5.65;;;4.40;87.10;;;;;;5073465;28;20033;-58
2022/04/27 04:35:36;;;;;;;7.93;5.82;;;4.40;87.30;;;;;;5074505;28;20354;-58
2022/04/27 04:38:04;;;;;;;6.47;5.07;;;4.40;87.40;;;;;;5074520;28;20456;-58
2022/04/27 04:40:30;;;;;;;7.05;5.45;;;4.40;87.60;;;;;;5074337;28;20048;-58
2022/04/27 04:42:56;;;;;;;5.93;4.63;;;4.30;87.70;;;;;;5074324;28;20034;-58
2022/04/27 04:45:23;;;;;;;7.22;4.97;;;4.40;88.00;;;;;;5074334;28;20443;-58
2022/04/27 04:47:49;;;;;;;6.10;4.20;;;4.30;88.10;;;;;;5074398;28;20016;-58
2022/04/27 04:50:15;;;;;;;5.30;4.53;;;4.30;88.20;;;;;;5074445;28;20094;-58
2022/04/27 04:52:40;;;;;;;6.38;5.20;;;4.30;88.40;;;;;;5074070;28;20028;-58
2022/04/27 04:55:06;;;;;;;6.47;5.28;;;4.30;88.40;;;;;;5074104;28;20089;-59
2022/04/27 04:57:32;;;;;;;8.05;5.30;;;4.30;88.50;;;;;;5073845;28;20021;-59
2022/04/27 04:59:58;;;;;;;5.32;4.15;;;4.30;88.60;;;;;;5074345;28;20081;-59
2022/04/27 05:02:23;;;;;;;6.28;4.40;;;4.30;88.80;;;;;;5073879;28;20021;-58
2022/04/27 05:04:50;;;;;;;6.65;4.93;;;4.40;89.00;;;;;;5073958;28;20437;-58
2022/04/27 05:07:18;;;;;;;6.80;4.57;;;4.40;89.00;;;;;;5074025;28;20016;-59
2022/04/27 05:09:44;;;;;;;6.38;4.63;;;4.40;89.10;;;;;;5057415;28;20029;-58
2022/04/27 05:12:10;;;;;;;6.13;5.38;;;4.40;89.10;;;;;;5053768;28;20040;-58
2022/04/27 05:14:36;;;;;;;7.88;5.78;;;4.40;89.00;;;;;;5052537;28;20032;-58
2022/04/27 05:17:01;;;;;;;10.13;5.53;;;4.40;89.00;;;;;;5051742;28;20057;-58
2022/04/27 05:19:27;;;;;;;9.73;5.43;;;4.50;89.10;;;;;;5052915;28;20029;-59
2022/04/27 05:21:52;;;;;;;7.20;5.43;;;4.50;89.10;;;;;;5065528;28;20028;-58
2022/04/27 05:24:18;;;;;;;7.03;5.22;;;4.50;89.00;;;;;;5073287;28;20036;-58
2022/04/27 05:26:43;;;;;;;7.00;5.88;;;4.60;89.10;;;;;;5072375;28;20029;-59
2022/04/27 05:31:57;;;;;;;8.50;5.63;;;4.60;89.30;;;;;;5073743;28;20081;-58
2022/04/27 05:34:24;;;;;;;9.15;6.35;;;4.70;89.30;;;;;;5072126;28;20101;-58
2022/04/27 05:36:50;;;;;;;7.50;6.15;;;4.70;89.30;;;;;;5072509;28;20336;-59
2022/04/27 05:39:21;;;;;;;9.13;7.03;;;4.70;89.30;;;;;;5073589;28;20033;-59
2022/04/27 05:41:49;;;;;;;7.05;6.05;;;4.70;89.50;;;;;;5073194;28;20024;-59
2022/04/27 05:44:22;;;;;;;7.22;6.00;;;4.70;89.70;;;;;;5072740;28;20472;-58
2022/04/27 05:46:52;;;;;;;8.13;6.38;;;4.70;89.80;;;;;;5072960;28;20024;-58
2022/04/27 05:49:18;;;;;;;6.30;5.28;;;4.80;90.00;;;;;;5073020;28;20024;-59
2022/04/27 05:51:44;;;;;;;8.75;5.15;;;4.80;90.10;;;;;;5072868;28;20374;-58
2022/04/27 05:54:09;;;;;;;8.70;5.10;;;4.90;90.10;;;;;;5073046;28;20070;-58
2022/04/27 05:56:36;;;;;;;8.73;5.45;;;4.90;90.20;;;;;;5072930;28;20055;-59
2022/04/27 05:59:01;;;;;;;7.20;5.57;;;4.90;90.20;;;;;;5071475;28;20069;-58
2022/04/27 06:01:28;;;;;;;9.18;5.80;;;5.00;90.60;;;;;;5072806;28;20388;-59
2022/04/27 06:03:53;;;;;;;7.82;6.13;;;5.10;90.30;;;;;;5072689;28;20040;-58
2022/04/27 06:06:20;;;;;;;7.50;6.13;;;5.10;90.40;;;;;;5088715;28;20539;-58
2022/04/27 06:08:45;;;;;;;6.65;5.78;;;5.20;90.50;;;;;;5072689;28;20070;-58
2022/04/27 06:11:11;;;;;;;10.50;7.68;;;5.20;90.50;;;;;;5072795;28;20020;-59
2022/04/27 06:13:36;;;;;;;8.43;6.90;;;5.30;90.80;;;;;;5088135;28;20473;-59
2022/04/27 06:16:02;;;;;;;8.73;7.18;;;5.30;90.90;;;;;;5071256;28;20043;-58
2022/04/27 06:18:28;;;;;;;7.82;6.47;;;5.30;91.00;;;;;;5072355;28;20511;-58
2022/04/27 06:20:53;;;;;;;6.93;5.55;;;5.40;91.10;;;;;;5071274;28;20028;-58
2022/04/27 06:23:19;;;;;;;7.22;5.82;;;5.50;91.20;;;;;;5072016;28;20051;-58
2022/04/27 06:25:49;;;;;;;8.38;6.18;;;5.60;91.30;;;;;;5071400;28;20036;-59
2022/04/27 06:28:18;;;;;;;8.93;5.53;;;5.60;91.40;;;;;;5072368;28;20024;-58
2022/04/27 06:30:44;;;;;;;8.47;6.30;;;5.70;91.50;;;;;;5072381;28;20108;-58
2022/04/27 06:33:10;;;;;;;10.50;6.50;;;5.80;91.50;;;;;;5072097;28;20350;-58
2022/04/27 06:35:35;;;;;;;10.13;6.60;;;5.80;91.60;;;;;;5071731;28;20037;-59
2022/04/27 06:38:01;;;;;;;9.60;6.88;;;5.90;91.80;;;;;;5071375;28;20027;-58
2022/04/27 06:40:26;;;;;;;12.25;7.47;;;6.00;91.90;;;;;;5068589;28;20020;-58
2022/04/27 06:42:53;;;;;;;9.43;6.65;;;6.10;92.10;;;;;;5065484;28;20020;-58
2022/04/27 06:45:19;;;;;;;10.82;7.88;;;6.10;92.20;;;;;;5068739;28;20043;-58
2022/04/27 06:47:44;;;;;;;13.88;8.68;;;6.20;92.40;;;;;;5072118;28;20388;-58
2022/04/27 06:50:13;;;;;;;12.70;8.88;;;6.30;92.70;;;;;;5071752;28;20505;-59
2022/04/27 06:52:48;;;;;;;15.18;9.80;;;6.30;93.10;;;;;;5071774;28;20024;-58
2022/04/27 06:55:15;;;;;;;10.30;8.00;;;6.40;93.30;;;;;;5069872;28;20395;-58
2022/04/27 06:57:41;;;;;;;10.95;8.77;;;6.50;93.40;;;;;;5071084;28;20036;-59
2022/04/27 07:00:10;;;;;;;10.27;8.00;;;6.50;93.50;;;;;;5071120;28;20029;-59
2022/04/27 07:02:37;;;;;;;10.10;7.32;;;6.60;93.60;;;;;;5071328;28;20025;-59
2022/04/27 07:05:03;;;;;;;7.80;6.57;;;6.70;93.70;;;;;;5070964;28;20033;-59
2022/04/27 07:07:29;;;;;;;7.75;6.15;;;6.80;93.80;;;;;;5071496;28;20025;-58
2022/04/27 07:09:56;;;;;;;11.95;8.07;;;6.90;94.10;;;;;;5071305;28;20024;-59
2022/04/27 07:12:21;;;;;;;10.35;7.60;;;7.00;94.10;;;;;;5070209;28;20028;-59
2022/04/27 07:14:48;;;;;;;10.18;7.22;;;7.10;94.10;;;;;;5071112;28;20078;-59
2022/04/27 07:17:14;;;;;;;10.18;7.78;;;7.10;94.10;;;;;;5070273;28;20093;-59
2022/04/27 07:19:40;;;;;;;9.85;6.82;;;7.20;94.20;;;;;;5070488;28;20067;-58
2022/04/27 07:22:06;;;;;;;10.45;7.35;;;7.30;94.20;;;;;;5067261;28;20021;-58
2022/04/27 07:24:32;;;;;;;8.35;6.38;;;7.40;94.20;;;;;;5066000;28;20027;-58
2022/04/27 07:26:58;;;;;;;11.63;5.85;;;7.50;94.20;;;;;;5061887;28;20041;-58
2022/04/27 07:29:23;;;;;;;8.85;7.07;;;7.60;94.20;;;;;;5067142;28;20055;-58
2022/04/27 07:31:49;;;;;;;13.50;8.00;;;7.70;94.30;;;;;;5070570;28;20174;-60
2022/04/27 07:34:15;;;;;;;8.52;6.97;;;7.80;94.50;;;;;;5069863;28;20021;-58
2022/04/27 07:36:41;;;;;;;9.45;6.28;;;7.90;94.50;;;;;;5069225;28;20372;-58
2022/04/27 07:39:06;;;;;;;8.20;6.25;;;8.00;94.40;;;;;;5065893;28;20017;-58
2022/04/27 07:41:33;;;;;;;7.22;4.70;;;8.10;94.30;;;;;;5067056;28;20798;-58
2022/04/27 07:43:58;;;;;;;7.43;4.85;;;8.20;94.10;;;;;;5067481;28;20009;-58
2022/04/27 07:46:24;;;;;;;7.57;4.93;;;8.30;93.80;;;;;;5067171;28;20020;-58
2022/04/27 07:48:51;;;;;;;6.28;4.20;;;8.40;93.50;;;;;;5069996;28;20361;-58
2022/04/27 07:51:18;;;;;;;8.90;6.97;;;8.50;93.30;;;;;;5067523;28;20036;-59
2022/04/27 07:53:43;;;;;;;8.43;7.00;;;8.60;93.00;;;;;;5070344;28;20495;-59
2022/04/27 07:56:09;;;;;;;10.05;5.32;;;8.70;92.50;;;;;;5071647;28;20036;-58
2022/04/27 07:58:35;;;;;;;6.80;5.03;;;8.70;92.20;;;;;;5070116;28;20029;-58
2022/04/27 08:01:01;;;;;;;6.85;5.40;;;8.90;92.00;;;;;;5069452;28;20036;-58
2022/04/27 08:03:27;;;;;;;8.30;5.50;;;8.90;91.70;;;;;;5060223;28;20104;-58
2022/04/27 08:05:52;;;;;;;7.65;4.30;;;9.00;91.50;;;;;;5068681;28;20104;-58
2022/04/27 08:08:18;;;;;;;7.25;5.93;;;9.10;91.20;;;;;;5070826;28;20024;-58
2022/04/27 08:10:44;;;;;;;8.82;5.20;;;9.30;90.20;;;;;;5072126;28;20498;-58
2022/04/27 08:13:10;;;;;;;6.78;4.90;;;9.40;90.00;;;;;;5056609;28;20481;-58
2022/04/27 08:15:35;;;;;;;5.63;4.40;;;9.50;89.50;;;;;;5051965;28;20029;-58
2022/04/27 08:18:09;;;;;;;4.07;2.60;;;9.60;88.60;;;;;;5051794;28;20041;-58
2022/04/27 08:23:21;;;;;;;5.65;2.95;;;9.70;86.40;;;;;;5052049;28;20036;-58
2022/04/27 08:25:48;;;;;;;4.95;3.30;;;9.80;86.00;;;;;;5066998;28;20018;-58
2022/04/27 08:28:14;;;;;;;3.95;2.35;;;9.90;84.50;;;;;;5065883;28;20024;-58
2022/04/27 08:30:42;;;;;;;6.70;3.15;;;10.00;83.70;;;;;;5070336;28;20473;-59
2022/04/27 08:33:08;;;;;;;4.38;2.70;;;10.10;78.50;;;;;;5071838;28;20029;-59
2022/04/27 08:35:35;;;;;;;4.75;2.60;;;10.20;78.30;;;;;;5070087;28;20476;-58
2022/04/27 08:38:04;;;;;;;4.97;1.77;;;10.30;78.60;;;;;;5071315;28;20032;-58
2022/04/27 08:40:30;;;;;;;;;;;10.40;78.40;;;;;;5072047;28;20456;-59
2022/04/27 08:42:57;;;;;;;3.20;1.80;;;10.50;78.20;;;;;;5071371;28;20007;-58
2022/04/27 08:45:23;;;;;;;2.67;1.55;;;10.60;77.00;;;;;;5071442;28;20020;-58
2022/04/27 08:47:50;;;;;;;4.40;1.70;;;10.70;76.50;;;;;;5071231;28;20101;-58
2022/04/27 08:50:18;;;;;;;3.10;1.65;;;10.80;76.00;;;;;;5071620;28;20036;-58
2022/04/27 08:52:45;;;;;;;3.22;1.55;;;10.90;74.90;;;;;;5069646;28;20044;-58
2022/04/27 08:55:13;;;;;;;3.85;1.63;;;11.00;74.10;;;;;;5071184;28;20059;-58
2022/04/27 08:57:39;;;;;;;3.53;1.73;;;11.10;73.40;;;;;;5071052;28;20024;-58
2022/04/27 09:00:07;;;;;;;3.70;1.23;;;11.10;73.30;;;;;;5071172;28;20028;-59
2022/04/27 09:02:33;;;;;;;4.93;1.17;;;11.20;73.10;;;;;;5070882;28;20435;-59
2022/04/27 09:05:09;;;;;;;4.25;1.38;;;11.30;72.80;;;;;;5069532;28;20726;-59
2022/04/27 09:07:42;;;;;;;5.82;2.08;;;11.40;71.30;;;;;;5071024;28;20020;-58
2022/04/27 09:10:11;;;;;;;5.00;1.60;;;11.40;71.00;;;;;;5069724;28;20029;-59
2022/04/27 09:12:50;;;;;;;5.22;1.90;;;11.50;69.90;;;;;;5070904;28;20032;-59
2022/04/27 09:15:18;;;;;;;3.05;1.30;;;11.60;70.40;;;;;;5070972;28;20024;-59
2022/04/27 09:20:47;;;;;;;5.63;2.00;;;11.80;70.50;;;;;;5070260;28;20075;-58
2022/04/27 09:23:21;;;;;;;4.78;1.88;;;11.90;67.80;;;;;;5070951;28;20039;-59
2022/04/27 09:25:48;;;;;;;4.53;1.30;;;11.90;67.80;;;;;;5070293;28;20059;-60
2022/04/27 09:28:14;;;;;;;2.28;1.17;;;12.10;68.20;;;;;;5069234;28;20035;-60
2022/04/27 09:30:43;;;;;;;2.85;1.35;;;12.20;67.90;;;;;;5069092;28;20024;-59
2022/04/27 09:33:08;;;;;;;2.83;1.20;;;12.30;67.60;;;;;;5070328;28;20395;-61
2022/04/27 09:35:36;;;;;;;4.45;1.38;;;12.30;67.40;;;;;;5070284;28;20539;-59
2022/04/27 09:38:40;;;;;;;3.42;1.70;;;12.40;67.20;;;;;;5070378;28;20874;-61
2022/04/27 09:41:05;;;;;;;3.63;1.33;;;12.60;66.80;;;;;;5052615;28;20041;-60
2022/04/27 09:43:45;;;;;;;3.67;1.50;;;12.60;66.70;;;;;;5070386;28;20029;-60
2022/04/27 09:46:25;;;;;;;2.75;1.75;;;12.80;66.70;;;;;;5070427;28;20029;-59
2022/04/27 09:49:09;;;;;;;4.30;2.20;;;12.90;67.00;;;;;;5069985;28;20043;-60
2022/04/27 09:51:46;;;;;;;4.57;2.38;;;13.00;65.90;;;;;;5079579;28;20107;-59
2022/04/27 09:54:23;;;;;;;4.60;2.25;;;13.10;64.80;;;;;;5090774;28;20051;-60
2022/04/27 09:56:51;;;;;;;3.17;1.92;;;13.30;65.00;;;;;;5090912;28;20071;-60
2022/04/27 09:59:19;;;;;;;5.35;1.83;;;13.50;65.00;;;;;;5090054;28;20032;-60
2022/04/27 10:01:47;;;;;;;3.60;1.50;;;13.60;64.70;;;;;;5090297;28;20028;-60
2022/04/27 10:04:18;;;;;;;1.75;1.33;;;13.80;64.60;;;;;;5090067;28;20426;-60
2022/04/27 10:06:44;;;;;;;2.95;1.60;;;13.90;64.10;;;;;;5080778;28;20480;-60
2022/04/27 10:09:09;;;;;;;2.83;1.42;;;14.10;63.80;;;;;;5089346;28;20024;-60
2022/04/27 10:11:37;;;;;;;4.55;1.88;;;14.20;63.70;;;;;;5089446;28;20036;-60
2022/04/27 10:14:03;;;;;;;3.03;2.20;;;14.40;63.40;;;;;;5080016;28;20130;-60
2022/04/27 10:16:29;;;;;;;2.83;1.63;;;14.50;62.80;;;;;;5072116;28;20024;-60
2022/04/27 10:18:55;;;;;;;7.18;2.15;;;14.50;62.60;;;;;;5056856;28;20508;-60
2022/04/27 10:21:39;;;;;;;2.75;1.70;;;14.60;62.00;;;;;;5049615;28;20040;-60
2022/04/27 10:24:07;;;;;;;4.20;1.90;;;14.70;61.70;;;;;;5049403;28;20032;-60
2022/04/27 10:26:32;;;;;;;5.18;1.73;;;14.70;61.80;;;;;;5050029;28;20028;-60
2022/04/27 10:29:00;;;;;;;4.38;2.13;;;14.90;61.70;;;;;;5068000;28;20042;-60
2022/04/27 10:31:55;;;;;;;4.97;1.52;;;15.10;60.30;;;;;;5087776;28;20036;-60
2022/04/27 10:34:22;;;;;;;2.65;1.40;;;15.40;60.20;;;;;;5089420;28;20415;-60
2022/04/27 10:36:49;;;;;;;3.08;2.05;;;15.60;60.20;;;;;;5069805;28;20029;-60
2022/04/27 10:39:23;;;;;;;2.80;1.42;;;15.70;59.10;;;;;;5069122;28;20782;-60
2022/04/27 10:41:52;;;;;;;3.72;1.42;;;15.80;59.10;;;;;;5069228;28;20510;-60
2022/04/27 10:44:18;;;;;;;3.05;1.67;;;15.90;59.30;;;;;;5069515;28;20469;-60
2022/04/27 10:46:44;;;;;;;4.45;2.40;;;16.00;59.20;;;;;;5069219;28;20040;-60
2022/04/27 10:49:23;;;;;;;3.30;2.22;;;16.10;58.00;;;;;;5069552;28;20031;-60
2022/04/27 10:52:09;;;;;;;5.53;2.10;;;16.30;57.70;;;;;;5069176;28;20554;-60
2022/04/27 10:54:37;;;;;;;2.47;1.73;;;16.40;57.20;;;;;;5069067;28;20035;-60
2022/04/27 10:57:15;;;;;;;4.00;2.50;;;16.50;56.90;;;;;;5069211;28;20020;-60
2022/04/27 10:59:56;;;;;;;3.35;1.88;;;16.60;56.80;;;;;;5068789;28;20036;-60
2022/04/27 11:02:34;;;;;;;6.10;1.90;;;16.60;56.20;;;;;;5069379;28;20024;-60
2022/04/27 11:05:12;;;;;;;3.35;1.52;;;16.70;56.20;;;;;;5067764;28;20106;-60
2022/04/27 11:07:58;;;;;;;2.75;1.55;;;16.80;56.20;;;;;;5069250;28;20479;-60
2022/04/27 11:10:25;;;;;;;3.35;1.38;;;17.20;55.70;;;;;;5068968;28;20024;-60
2022/04/27 11:12:52;;;;;;;3.72;2.13;;;17.50;55.50;;;;;;5069048;28;20024;-60
2022/04/27 11:15:25;;;;;;;3.38;1.30;;;17.80;55.00;;;;;;5069277;28;20033;-60
2022/04/27 11:18:00;;;;;;;2.70;1.85;;;18.20;54.40;;;;;;5068645;28;20435;-60
2022/04/27 11:20:33;;;;;;;3.30;2.03;;;18.50;53.70;;;;;;5068774;28;20021;-60
2022/04/27 11:23:03;;;;;;;3.90;2.47;;;18.70;52.80;;;;;;5086489;28;20105;-60
2022/04/27 11:25:30;;;;;;;3.70;2.55;;;18.70;50.90;;;;;;5075370;28;20016;-60
2022/04/27 11:27:57;;;;;;;3.17;2.40;;;18.80;50.30;;;;;;5084236;28;20039;-60
2022/04/27 11:30:24;;;;;;;4.68;3.15;;;18.90;49.30;;;;;;5078202;28;20608;-60
2022/04/27 11:32:51;;;;;;;3.35;1.98;;;19.10;49.80;;;;;;5086147;28;20112;-61
2022/04/27 11:35:18;;;;;;;1.80;1.55;;;19.30;49.80;;;;;;5084629;28;20228;-60
2022/04/27 11:37:44;;;;;;;4.10;2.08;;;19.40;49.70;;;;;;5079210;28;20029;-60
2022/04/27 11:40:17;;;;;;;4.53;2.17;;;19.50;48.20;;;;;;5070702;28;20024;-60
2022/04/27 11:42:47;;;;;;;3.55;2.13;;;19.60;47.70;;;;;;5083749;28;20117;-60
2022/04/27 11:45:22;;;;;;;4.07;1.70;;;19.70;48.20;;;;;;5082689;28;20039;-60
2022/04/27 11:48:02;;;;;;;4.25;2.10;;;20.00;48.40;;;;;;5060874;28;20392;-60
2022/04/27 11:50:32;;;;;;;2.08;1.60;;;20.20;47.60;;;;;;5076293;28;20023;-60
2022/04/27 11:53:02;;;;;;;3.20;1.77;;;20.40;47.60;;;;;;5077086;28;20404;-60
2022/04/27 11:55:28;;;;;;;3.03;1.90;;;20.70;47.40;;;;;;5086542;28;20498;-60
2022/04/27 11:57:54;;;;;;;3.03;1.95;;;20.90;47.10;;;;;;5062781;28;20503;-61
2022/04/27 12:00:22;;;;;;;2.05;1.80;;;21.20;46.40;;;;;;5076616;28;20032;-61
2022/04/27 12:02:48;;;;;;;5.00;2.38;;;21.50;46.60;;;;;;5076626;28;20031;-61
2022/04/27 12:05:15;;;;;;;2.95;1.73;;;21.70;45.20;;;;;;5065136;28;20036;-60
2022/04/27 12:07:47;;;;;;;3.13;1.52;;;22.00;45.30;;;;;;5070397;28;20023;-60
2022/04/27 12:10:15;;;;;;;2.40;1.85;;;22.30;44.90;;;;;;5078323;28;20069;-60
2022/04/27 12:12:42;;;;;;;2.50;1.98;;;22.50;44.40;;;;;;5068600;28;20496;-60
2022/04/27 12:15:11;;;;;;;3.78;2.35;;;22.50;44.50;;;;;;5075039;28;20120;-61
2022/04/27 12:17:41;;;;;;;3.88;2.50;;;22.60;43.30;;;;;;5071339;28;20415;-61
2022/04/27 12:20:07;;;;;;;5.70;2.30;;;22.60;42.60;;;;;;5077219;28;20107;-61
2022/04/27 12:22:33;;;;;;;2.33;1.90;;;22.40;42.60;;;;;;5069314;28;20066;-61
2022/04/27 12:25:05;;;;;;;4.53;2.95;;;22.20;42.80;;;;;;5073631;28;20028;-61
2022/04/27 12:27:31;;;;;;;4.50;3.58;;;22.10;41.70;;;;;;5073826;28;20496;-61
2022/04/27 12:30:07;;;;;;;4.30;2.30;;;22.10;41.50;;;;;;5074451;28;20024;-61
2022/04/27 12:32:33;;;;;;;4.07;2.20;;;22.00;41.90;;;;;;5074697;28;20025;-60
2022/04/27 12:37:50;;;;;;;5.47;3.28;;;22.30;40.60;;;;;;5074825;28;20094;-61
2022/04/27 12:40:16;;;;;;;2.90;1.75;;;22.30;40.50;;;;;;5074574;28;20024;-61
2022/04/27 12:43:00;;;;;;;3.40;2.28;;;22.40;41.10;;;;;;5072984;28;20530;-61
2022/04/27 12:45:26;;;;;;;4.13;3.17;;;22.60;40.70;;;;;;5073179;28;20494;-61
2022/04/27 12:47:52;;;;;;;4.18;3.20;;;22.60;39.80;;;;;;5074212;28;20036;-61
2022/04/27 12:50:18;;;;;;;6.05;2.70;;;22.50;38.60;;;;;;5074361;28;20029;-61
2022/04/27 12:52:45;;;;;;;3.75;2.50;;;22.40;39.50;;;;;;5074031;28;20525;-61
2022/04/27 12:55:13;;;;;;;3.45;2.20;;;22.40;39.60;;;;;;5073172;28;20108;-61
2022/04/27 12:57:59;;;;;;;4.03;1.95;;;22.70;39.90;;;;;;5074256;28;20021;-61
2022/04/27 13:00:48;;;;;;;3.85;2.10;;;23.00;39.90;;;;;;5072828;28;20052;-61
2022/04/27 13:03:14;;;;;;;2.60;2.03;;;23.40;39.90;;;;;;5074287;28;20033;-61
2022/04/27 13:05:42;;;;;;;5.15;2.50;;;23.60;39.40;;;;;;5074032;28;20094;-61
2022/04/27 13:08:08;;;;;;;5.20;2.40;;;23.80;39.00;;;;;;5074191;28;20166;-61
2022/04/27 13:13:19;;;;;;;2.72;2.08;;;24.10;38.80;;;;;;5074150;28;20043;-61
2022/04/27 13:15:46;;;;;;;2.50;2.03;;;24.20;38.40;;;;;;5074196;28;20103;-61
2022/04/27 13:18:13;;;;;;;3.28;1.88;;;24.30;38.40;;;;;;5074706;28;20047;-61
2022/04/27 13:20:39;;;;;;;3.67;2.63;;;24.20;38.20;;;;;;5093046;28;20095;-61